createdAt,value
2019-03-12T00:00:37.250Z,6.87
2019-03-12T00:03:09.799Z,7.00
2019-03-12T00:05:40.705Z,7.27
2019-03-12T00:08:11.811Z,7.57
2019-03-12T00:10:43.484Z,7.33
2019-03-12T00:13:14.473Z,7.93
2019-03-12T00:15:45.412Z,7.80
2019-03-12T00:18:16.340Z,8.33
2019-03-12T00:20:47.240Z,9.80
2019-03-12T00:23:18.972Z,9.70
2019-03-12T00:25:49.864Z,10.63
2019-03-12T00:28:20.795Z,12.40
2019-03-12T00:30:51.710Z,12.70
2019-03-12T00:33:22.641Z,13.47
2019-03-12T00:35:53.538Z,15.00
2019-03-12T00:38:24.491Z,13.77
2019-03-12T00:40:55.385Z,13.80
2019-03-12T00:43:26.312Z,13.73
2019-03-12T00:45:57.215Z,13.27
2019-03-12T00:48:28.993Z,12.13
2019-03-12T00:50:59.901Z,12.83
2019-03-12T00:53:31.666Z,12.20
2019-03-12T00:56:02.559Z,13.07
2019-03-12T00:58:33.490Z,12.77
2019-03-12T01:01:04.385Z,14.37
2019-03-12T01:03:35.319Z,14.47
2019-03-12T01:06:06.227Z,12.60
2019-03-12T01:08:37.175Z,12.23
2019-03-12T01:11:08.081Z,12.83
2019-03-12T01:13:39.005Z,11.43
2019-03-12T01:16:09.922Z,11.77
2019-03-12T01:18:40.843Z,11.27
2019-03-12T01:21:11.747Z,10.77
2019-03-12T01:23:43.478Z,9.97
2019-03-12T01:26:14.382Z,8.90
2019-03-12T01:28:45.301Z,8.37
2019-03-12T01:31:16.196Z,9.40
2019-03-12T01:33:47.124Z,7.63
2019-03-12T01:36:18.024Z,7.50
2019-03-12T01:38:49.008Z,7.47
2019-03-12T01:41:19.896Z,8.13
2019-03-12T01:43:50.830Z,7.90
2019-03-12T01:46:21.724Z,8.17
2019-03-12T01:48:52.714Z,6.37
2019-03-12T01:51:23.712Z,6.80
2019-03-12T01:53:54.652Z,7.13
2019-03-12T01:56:25.553Z,7.10
2019-03-12T01:58:56.467Z,7.57
2019-03-12T02:01:27.371Z,6.50
2019-03-12T02:03:59.058Z,6.27
2019-03-12T02:06:29.956Z,6.47
2019-03-12T02:09:01.790Z,6.37
2019-03-12T02:11:32.681Z,7.07
2019-03-12T02:14:06.692Z,6.63
2019-03-12T02:16:37.568Z,5.13
2019-03-12T02:19:27.168Z,4.50
2019-03-12T02:21:58.040Z,4.37
2019-03-12T02:24:29.342Z,3.30
2019-03-12T02:27:00.231Z,1.93
2019-03-12T02:29:31.163Z,1.90
2019-03-12T02:32:02.037Z,2.47
2019-03-12T02:34:32.954Z,2.80
2019-03-12T02:37:03.844Z,1.90
2019-03-12T02:39:34.799Z,2.20
2019-03-12T02:42:05.690Z,2.20
2019-03-12T02:44:36.602Z,2.10
2019-03-12T02:47:07.476Z,2.00
2019-03-12T02:49:38.386Z,1.80
2019-03-12T02:52:09.278Z,1.60
2019-03-12T02:54:41.126Z,1.80
2019-03-12T02:57:12.004Z,1.93
2019-03-12T02:59:42.950Z,1.70
2019-03-12T03:02:13.845Z,1.70
2019-03-12T03:04:44.763Z,2.30
2019-03-12T03:07:20.252Z,2.07
2019-03-12T03:09:51.198Z,1.70
2019-03-12T03:12:22.098Z,1.70
2019-03-12T03:14:53.007Z,1.70
2019-03-12T03:17:23.963Z,1.80
2019-03-12T03:19:54.880Z,1.90
2019-03-12T03:22:25.766Z,1.70
2019-03-12T03:24:57.722Z,1.77
2019-03-12T03:27:29.550Z,2.10
2019-03-12T03:30:01.031Z,2.20
2019-03-12T03:32:31.967Z,2.47
2019-03-12T03:35:02.888Z,3.03
2019-03-12T03:37:33.767Z,2.87
2019-03-12T03:40:06.807Z,3.03
2019-03-12T03:42:37.707Z,3.30
2019-03-12T03:45:09.716Z,2.83
2019-03-12T03:47:40.618Z,2.27
2019-03-12T03:50:13.618Z,2.20
2019-03-12T03:52:44.550Z,3.10
2019-03-12T03:55:21.643Z,3.37
2019-03-12T03:57:52.620Z,3.43
2019-03-12T04:00:25.184Z,4.00
2019-03-12T04:02:56.064Z,5.90
2019-03-12T04:05:26.995Z,5.70
2019-03-12T04:07:57.890Z,5.30
2019-03-12T04:10:29.822Z,4.30
2019-03-12T04:13:00.759Z,3.37
2019-03-12T04:15:31.831Z,4.40
2019-03-12T04:18:02.824Z,3.90
2019-03-12T04:20:33.782Z,4.77
2019-03-12T04:23:04.670Z,5.60
2019-03-12T04:25:38.072Z,5.17
2019-03-12T04:28:08.963Z,6.00
2019-03-12T04:30:39.891Z,6.57
2019-03-12T04:33:32.693Z,5.47
2019-03-12T04:36:03.674Z,5.10
2019-03-12T04:38:34.576Z,5.17
2019-03-12T04:41:07.182Z,4.83
2019-03-12T04:43:38.074Z,5.13
2019-03-12T04:46:09.017Z,5.20
2019-03-12T04:48:39.898Z,4.90
2019-03-12T04:51:10.812Z,4.17
2019-03-12T04:53:41.701Z,4.17
2019-03-12T04:56:13.711Z,5.70
2019-03-12T04:58:44.608Z,5.40
2019-03-12T05:01:15.594Z,5.23
2019-03-12T05:03:46.486Z,5.43
2019-03-12T05:06:19.797Z,8.87
2019-03-12T05:08:50.008Z,8.63
2019-03-12T05:11:21.024Z,12.77
2019-03-12T05:14:18.316Z,7.20
2019-03-12T05:16:50.076Z,5.80
2019-03-12T05:19:20.962Z,6.57
2019-03-12T05:21:51.899Z,7.90
2019-03-12T05:24:22.792Z,8.77
2019-03-12T05:26:54.576Z,8.37
2019-03-12T05:29:25.484Z,11.57
2019-03-12T05:31:56.413Z,10.90
2019-03-12T05:34:27.317Z,13.17
2019-03-12T05:36:58.238Z,12.63
2019-03-12T05:39:29.135Z,12.83
2019-03-12T05:42:00.919Z,11.70
2019-03-12T05:44:31.829Z,10.73
2019-03-12T05:47:02.766Z,9.30
2019-03-12T05:49:33.668Z,10.40
2019-03-12T05:52:04.590Z,7.20
2019-03-12T05:54:35.489Z,6.50
2019-03-12T05:57:06.525Z,4.40
2019-03-12T05:59:37.445Z,3.00
2019-03-12T06:02:08.365Z,3.57
2019-03-12T06:04:44.941Z,2.83
2019-03-12T06:07:15.866Z,2.13
2019-03-12T06:09:46.749Z,2.00
2019-03-12T06:12:18.499Z,2.13
2019-03-12T06:14:50.221Z,3.03
2019-03-12T06:17:21.142Z,4.50
2019-03-12T06:19:52.032Z,4.33
2019-03-12T06:22:22.946Z,5.13
2019-03-12T06:24:53.906Z,7.37
2019-03-12T06:27:25.838Z,17.47
2019-03-12T06:29:56.739Z,10.90
2019-03-12T06:32:29.294Z,3.10
2019-03-12T06:35:01.843Z,3.10
2019-03-12T06:37:34.388Z,4.83
2019-03-12T06:40:12.076Z,7.37
2019-03-12T06:42:54.482Z,10.87
2019-03-12T06:45:33.023Z,4.30
2019-03-12T06:48:05.590Z,5.97
2019-03-12T06:50:53.377Z,6.13
2019-03-12T06:53:34.864Z,4.07
2019-03-12T06:56:09.873Z,7.60
2019-03-12T06:58:45.482Z,14.87
2019-03-12T07:01:34.444Z,3.00
2019-03-12T07:04:23.321Z,7.07
2019-03-12T07:07:12.827Z,4.17
2019-03-12T07:09:57.928Z,3.10
2019-03-12T07:12:45.496Z,4.53
2019-03-12T07:15:35.802Z,5.00
2019-03-12T07:18:14.157Z,9.10
2019-03-12T07:20:46.733Z,5.20
2019-03-12T07:23:19.281Z,3.37
2019-03-12T07:25:54.800Z,9.40
2019-03-12T07:28:50.188Z,13.80
2019-03-12T07:31:31.069Z,15.33
2019-03-12T07:34:10.036Z,10.43
2019-03-12T07:36:48.598Z,15.53
2019-03-12T07:39:26.869Z,11.00
2019-03-12T07:42:05.517Z,4.10
2019-03-12T07:44:38.050Z,3.53
2019-03-12T07:47:16.357Z,10.30
2019-03-12T07:50:05.191Z,2.50
2019-03-12T07:52:40.471Z,3.53
2019-03-12T07:55:13.012Z,3.73
2019-03-12T07:57:54.322Z,5.40
2019-03-12T08:00:41.887Z,2.90
2019-03-12T08:03:15.539Z,9.07
2019-03-12T08:06:03.348Z,4.37
2019-03-12T08:08:52.354Z,4.53
2019-03-12T08:11:27.843Z,3.47
2019-03-12T08:14:16.748Z,8.77
2019-03-12T08:16:52.881Z,9.13
2019-03-12T08:19:41.322Z,20.47
2019-03-12T08:22:25.701Z,11.23
2019-03-12T08:25:07.457Z,17.60
2019-03-12T08:27:55.023Z,3.90
2019-03-12T08:30:27.586Z,9.10
2019-03-12T08:33:02.824Z,4.33
2019-03-12T08:35:45.456Z,3.33
2019-03-12T08:38:21.086Z,7.80
2019-03-12T08:41:08.958Z,3.60
2019-03-12T08:43:41.498Z,15.00
2019-03-12T08:46:30.160Z,6.63
2019-03-12T08:49:05.406Z,5.10
2019-03-12T08:51:40.922Z,4.33
2019-03-12T08:54:28.806Z,10.80
2019-03-12T08:57:01.384Z,13.60
2019-03-12T08:59:50.022Z,11.17
2019-03-12T09:02:28.426Z,9.20
2019-03-12T09:05:00.982Z,7.30
2019-03-12T09:07:43.331Z,6.83
2019-03-12T09:10:21.717Z,10.37
2019-03-12T09:13:00.465Z,11.73
2019-03-12T09:15:33.114Z,6.23
2019-03-12T09:18:17.618Z,7.47
2019-03-12T09:20:56.184Z,19.30
2019-03-12T09:23:45.212Z,30.13
2019-03-12T09:26:28.250Z,8.93
2019-03-12T09:29:12.791Z,22.47
2019-03-12T09:31:48.050Z,6.73
2019-03-12T09:34:23.364Z,3.03
2019-03-12T09:37:04.864Z,3.30
2019-03-12T09:39:55.504Z,3.70
2019-03-12T09:42:28.035Z,4.47
2019-03-12T09:45:03.420Z,6.47
2019-03-12T09:47:35.945Z,4.70
2019-03-12T09:50:22.748Z,4.93
2019-03-12T09:53:00.987Z,3.23
2019-03-12T09:55:34.441Z,4.43
2019-03-12T09:58:06.979Z,2.60
2019-03-12T10:00:51.561Z,3.73
2019-03-12T10:03:24.092Z,4.90
2019-03-12T10:06:00.214Z,4.43
2019-03-12T10:08:35.479Z,5.30
2019-03-12T10:11:28.205Z,6.80
2019-03-12T10:14:06.810Z,4.60
2019-03-12T10:16:39.383Z,4.73
2019-03-12T10:19:15.628Z,4.40
2019-03-12T10:21:50.885Z,2.97
2019-03-12T10:24:23.409Z,2.90
2019-03-12T10:27:12.156Z,3.20
2019-03-12T10:29:44.691Z,2.60
2019-03-12T10:32:32.487Z,2.70
2019-03-12T10:35:08.229Z,10.07
2019-03-12T10:37:43.504Z,9.23
2019-03-12T10:40:24.784Z,5.30
2019-03-12T10:43:03.907Z,3.00
2019-03-12T10:45:45.820Z,2.20
2019-03-12T10:48:18.008Z,2.43
2019-03-12T10:50:48.900Z,3.63
2019-03-12T10:53:19.826Z,3.77
2019-03-12T10:55:50.725Z,3.07
2019-03-12T10:58:21.710Z,2.77
2019-03-12T11:00:52.668Z,4.37
2019-03-12T11:03:23.591Z,7.00
2019-03-12T11:05:54.484Z,3.10
2019-03-12T11:08:25.406Z,3.00
2019-03-12T11:10:56.301Z,3.03
2019-03-12T11:13:27.239Z,11.80
2019-03-12T11:15:58.144Z,12.87
2019-03-12T11:18:29.090Z,4.00
2019-03-12T11:21:01.579Z,2.33
2019-03-12T11:23:32.490Z,3.13
2019-03-12T11:26:03.381Z,3.43
2019-03-12T11:28:35.217Z,4.70
2019-03-12T11:31:06.203Z,2.67
2019-03-12T11:33:37.126Z,3.77
2019-03-12T11:36:11.949Z,3.73
2019-03-12T11:38:45.087Z,4.70
2019-03-12T11:41:15.423Z,4.50
2019-03-12T11:43:47.171Z,5.43
2019-03-12T11:46:18.067Z,4.33
2019-03-12T11:48:49.140Z,4.10
2019-03-12T11:51:20.216Z,4.10
2019-03-12T11:53:51.139Z,4.13
2019-03-12T11:56:22.019Z,3.93
2019-03-12T11:58:53.141Z,8.30
2019-03-12T12:01:24.083Z,11.67
2019-03-12T12:03:55.021Z,11.23
2019-03-12T12:06:26.009Z,24.10
2019-03-12T12:08:56.922Z,15.43
2019-03-12T12:11:27.826Z,8.90
2019-03-12T12:13:58.787Z,8.20
2019-03-12T12:16:30.292Z,16.37
2019-03-12T12:19:01.212Z,9.70
2019-03-12T12:21:32.106Z,4.60
2019-03-12T12:24:03.097Z,6.70
2019-03-12T12:26:33.997Z,24.00
2019-03-12T12:29:05.922Z,43.30
2019-03-12T12:31:36.833Z,43.93
2019-03-12T12:34:07.761Z,26.13
2019-03-12T12:36:38.736Z,23.43
2019-03-12T12:39:09.669Z,13.57
2019-03-12T12:41:40.579Z,31.23
2019-03-12T12:44:12.378Z,15.47
2019-03-12T12:46:43.277Z,8.70
2019-03-12T12:49:14.207Z,11.43
2019-03-12T12:51:45.207Z,12.37
2019-03-12T12:54:16.133Z,12.20
2019-03-12T12:56:47.030Z,7.20
2019-03-12T12:59:18.857Z,8.93
2019-03-12T13:01:49.729Z,5.37
2019-03-12T13:04:20.729Z,5.60
2019-03-12T13:06:51.612Z,5.67
2019-03-12T13:09:22.551Z,5.80
2019-03-12T13:11:53.450Z,6.37
2019-03-12T13:14:26.921Z,6.07
2019-03-12T13:16:57.891Z,5.90
2019-03-12T13:19:28.839Z,5.37
2019-03-12T13:22:00.595Z,5.23
2019-03-12T13:24:31.505Z,7.37
2019-03-12T13:27:02.392Z,3.60
2019-03-12T13:29:34.296Z,4.60
2019-03-12T13:32:13.360Z,3.27
2019-03-12T13:34:37.886Z,6.63
2019-03-12T13:37:08.772Z,5.57
2019-03-12T13:39:39.690Z,5.00
2019-03-12T13:42:10.581Z,6.10
2019-03-12T13:44:41.574Z,5.60
2019-03-12T13:47:12.485Z,3.50
2019-03-12T13:49:43.386Z,3.47
2019-03-12T13:52:14.266Z,4.40
2019-03-12T13:54:45.215Z,3.53
2019-03-12T13:57:16.083Z,7.17
2019-03-12T13:59:47.922Z,5.83
2019-03-12T14:02:18.821Z,6.57
2019-03-12T14:04:49.813Z,8.80
2019-03-12T14:07:21.695Z,4.87
2019-03-12T14:09:52.618Z,6.97
2019-03-12T14:12:23.522Z,5.03
2019-03-12T14:14:54.468Z,5.60
2019-03-12T14:17:25.382Z,6.67
2019-03-12T14:19:56.298Z,6.33
2019-03-12T14:22:27.258Z,5.00
2019-03-12T14:24:58.419Z,5.67
2019-03-12T14:27:29.386Z,5.67
2019-03-12T14:30:01.446Z,10.70
2019-03-12T14:32:32.406Z,9.27
2019-03-12T14:35:03.344Z,9.73
2019-03-12T14:37:36.088Z,22.70
2019-03-12T14:40:07.239Z,11.63
2019-03-12T14:42:38.188Z,11.93
2019-03-12T14:45:14.288Z,11.20
2019-03-12T14:47:45.182Z,6.50
2019-03-12T14:50:18.172Z,7.37
2019-03-12T14:52:57.572Z,6.03
2019-03-12T14:55:28.483Z,5.93
2019-03-12T14:57:59.378Z,16.90
2019-03-12T15:00:31.416Z,11.50
2019-03-12T15:03:02.342Z,77.37
2019-03-12T15:05:33.283Z,49.50
2019-03-12T15:08:05.195Z,23.40
2019-03-12T15:10:36.117Z,22.93
2019-03-12T15:13:07.028Z,37.13
2019-03-12T15:15:38.935Z,36.90
2019-03-12T15:18:09.854Z,19.10
2019-03-12T15:20:40.809Z,34.13
2019-03-12T15:23:13.505Z,8.20
2019-03-12T15:25:44.431Z,7.80
2019-03-12T15:28:15.346Z,12.70
2019-03-12T15:30:47.946Z,13.90
2019-03-12T15:33:18.855Z,35.20
2019-03-12T15:35:49.789Z,26.57
2019-03-12T15:38:20.750Z,16.40
2019-03-12T15:40:51.684Z,16.93
2019-03-12T15:43:22.595Z,14.67
2019-03-12T15:45:55.233Z,15.10
2019-03-12T15:48:28.436Z,12.77
2019-03-12T15:50:59.366Z,19.07
2019-03-12T15:53:30.266Z,17.83
2019-03-12T15:56:01.195Z,29.63
2019-03-12T15:58:32.099Z,34.83
2019-03-12T16:01:07.196Z,25.70
2019-03-12T16:03:38.284Z,38.03
2019-03-12T16:06:09.305Z,23.23
2019-03-12T16:08:40.247Z,13.30
2019-03-12T16:11:11.185Z,10.83
2019-03-12T16:13:42.154Z,12.17
2019-03-12T16:16:13.226Z,13.83
2019-03-12T16:18:44.134Z,10.80
2019-03-12T16:21:15.163Z,12.77
2019-03-12T16:23:47.725Z,13.40
2019-03-12T16:26:18.677Z,17.00
2019-03-12T16:28:49.602Z,22.57
2019-03-12T16:31:21.567Z,18.17
2019-03-12T16:33:52.480Z,15.97
2019-03-12T16:36:23.912Z,16.83
2019-03-12T16:38:54.837Z,18.73
2019-03-12T16:41:30.954Z,20.80
2019-03-12T16:44:02.712Z,22.03
2019-03-12T16:46:34.648Z,14.90
2019-03-12T16:49:05.544Z,18.60
2019-03-12T16:51:36.880Z,22.90
2019-03-12T16:54:07.780Z,18.90
2019-03-12T16:56:45.010Z,19.07
2019-03-12T16:59:11.398Z,24.23
2019-03-12T17:01:43.177Z,27.60
2019-03-12T17:04:14.083Z,54.30
2019-03-12T17:06:45.093Z,56.30
2019-03-12T17:09:16.379Z,58.50
2019-03-12T17:11:47.298Z,48.30
2019-03-12T17:14:18.214Z,24.70
2019-03-12T17:16:50.020Z,35.33
2019-03-12T17:19:20.931Z,49.97
2019-03-12T17:21:51.975Z,51.63
2019-03-12T17:24:23.748Z,35.40
2019-03-12T17:26:54.746Z,34.53
2019-03-12T17:29:25.735Z,39.30
2019-03-12T17:31:57.552Z,43.70
2019-03-12T17:34:35.768Z,35.77
2019-03-12T17:37:01.101Z,38.57
2019-03-12T17:39:32.009Z,80.93
2019-03-12T17:42:02.957Z,55.50
2019-03-12T17:44:33.882Z,142.53
2019-03-12T17:47:05.697Z,126.77
2019-03-12T17:49:36.926Z,92.30
2019-03-12T17:52:07.934Z,60.23
2019-03-12T17:54:38.839Z,37.87
2019-03-12T17:57:09.873Z,29.33
2019-03-12T17:59:40.876Z,27.97
2019-03-12T18:02:13.676Z,27.73
2019-03-12T18:04:44.730Z,28.00
2019-03-12T18:07:15.687Z,36.63
2019-03-12T18:09:51.955Z,48.57
2019-03-12T18:12:22.970Z,80.43
2019-03-12T18:14:53.871Z,84.97
2019-03-12T18:17:25.767Z,52.47
2019-03-12T18:19:56.692Z,30.40
2019-03-12T18:22:27.713Z,50.83
2019-03-12T18:25:00.447Z,54.10
2019-03-12T18:27:31.382Z,71.50
2019-03-12T18:30:02.366Z,88.60
2019-03-12T18:32:34.990Z,89.17
2019-03-12T18:35:07.830Z,90.30
2019-03-12T18:37:38.780Z,76.57
2019-03-12T18:40:15.103Z,53.10
2019-03-12T18:42:46.058Z,43.67
2019-03-12T18:45:22.888Z,37.63
2019-03-12T18:47:54.770Z,34.20
2019-03-12T18:50:25.797Z,39.30
2019-03-12T18:52:56.827Z,44.33
2019-03-12T18:55:33.537Z,52.00
2019-03-12T18:58:08.780Z,55.43
2019-03-12T19:00:43.113Z,47.07
2019-03-12T19:03:15.384Z,47.83
2019-03-12T19:05:46.277Z,48.53
2019-03-12T19:08:17.390Z,46.50
2019-03-12T19:10:48.338Z,39.57
2019-03-12T19:13:19.344Z,36.33
2019-03-12T19:15:50.376Z,37.10
2019-03-12T19:18:27.663Z,30.23
2019-03-12T19:20:58.668Z,28.57
2019-03-12T19:23:29.644Z,39.57
2019-03-12T19:26:02.114Z,28.87
2019-03-12T19:28:33.123Z,33.43
2019-03-12T19:31:05.673Z,34.37
2019-03-12T19:33:37.589Z,32.70
2019-03-12T19:36:08.521Z,34.23
2019-03-12T19:38:39.457Z,48.13
2019-03-12T19:41:10.375Z,53.80
2019-03-12T19:43:41.308Z,55.60
2019-03-12T19:46:12.232Z,54.10
2019-03-12T19:48:44.115Z,60.47
2019-03-12T19:51:15.020Z,80.83
2019-03-12T19:53:45.962Z,77.40
2019-03-12T19:56:16.887Z,79.57
2019-03-12T19:58:47.840Z,80.77
2019-03-12T20:01:19.265Z,100.47
2019-03-12T20:03:51.868Z,90.20
2019-03-12T20:06:22.855Z,91.90
2019-03-12T20:08:56.900Z,96.47
2019-03-12T20:12:00.572Z,101.17
2019-03-12T20:15:06.717Z,105.60
2019-03-12T20:18:15.728Z,111.90
2019-03-12T20:20:59.402Z,114.27
2019-03-12T20:23:41.978Z,108.63
2019-03-12T20:26:49.849Z,101.57
2019-03-12T20:29:35.524Z,85.00
2019-03-12T20:32:31.875Z,82.93
2019-03-12T20:35:28.464Z,82.37
2019-03-12T20:38:30.229Z,82.30
2019-03-12T20:41:12.633Z,82.60
2019-03-12T20:44:12.136Z,82.73
2019-03-12T20:47:10.148Z,72.30
2019-03-12T20:50:03.676Z,86.07
2019-03-12T20:52:54.043Z,99.30
2019-03-12T20:55:48.383Z,85.70
2019-03-12T20:58:38.589Z,76.33
2019-03-12T21:01:28.044Z,70.87
2019-03-12T21:04:13.870Z,66.20
2019-03-12T21:07:10.304Z,67.87
2019-03-12T21:10:17.366Z,64.50
2019-03-12T21:13:17.171Z,66.93
2019-03-12T21:16:03.030Z,72.07
2019-03-12T21:19:10.039Z,78.10
2019-03-12T21:21:49.698Z,74.47
2019-03-12T21:24:47.877Z,71.90
2019-03-12T21:27:27.716Z,71.37
2019-03-12T21:29:59.068Z,69.27
2019-03-12T21:32:30.055Z,66.80
2019-03-12T21:35:00.994Z,74.20
2019-03-12T21:37:31.915Z,96.23
2019-03-12T21:40:02.854Z,79.77
2019-03-12T21:42:33.780Z,86.27
2019-03-12T21:45:07.554Z,87.37
2019-03-12T21:47:38.470Z,80.67
2019-03-12T21:50:10.629Z,73.43
2019-03-12T21:52:41.530Z,66.73
2019-03-12T21:55:14.483Z,57.17
2019-03-12T21:57:45.389Z,55.33
2019-03-12T22:00:19.081Z,46.87
2019-03-12T22:02:50.013Z,41.70
2019-03-12T22:05:20.940Z,49.40
2019-03-12T22:07:51.847Z,47.90
2019-03-12T22:10:23.675Z,44.73
2019-03-12T22:12:54.571Z,45.40
2019-03-12T22:15:29.536Z,48.00
2019-03-12T22:17:59.184Z,50.27
2019-03-12T22:20:30.916Z,47.17
2019-03-12T22:23:15.549Z,49.40
2019-03-12T22:25:46.495Z,67.93
2019-03-12T22:28:18.234Z,60.03
2019-03-12T22:30:50.170Z,61.87
2019-03-12T22:33:21.151Z,54.20
2019-03-12T22:35:54.756Z,49.63
2019-03-12T22:38:25.743Z,43.30
2019-03-12T22:40:56.680Z,41.93
2019-03-12T22:43:27.588Z,45.87
2019-03-12T22:45:59.364Z,49.67
2019-03-12T22:48:30.268Z,47.23
2019-03-12T22:51:01.197Z,45.23
2019-03-12T22:53:33.760Z,41.03
2019-03-12T22:56:06.772Z,40.30
2019-03-12T22:58:37.681Z,36.20
2019-03-12T23:01:08.696Z,38.63
2019-03-12T23:03:39.610Z,34.00
2019-03-12T23:06:11.549Z,36.07
2019-03-12T23:08:42.473Z,23.60
2019-03-12T23:11:13.434Z,40.10
2019-03-12T23:13:44.364Z,20.70
2019-03-12T23:16:15.344Z,20.53
2019-03-12T23:18:46.272Z,14.87
2019-03-12T23:21:17.250Z,16.30
2019-03-12T23:23:48.159Z,13.27
2019-03-12T23:26:19.133Z,14.63
2019-03-12T23:28:50.866Z,16.37
2019-03-12T23:31:23.314Z,12.20
2019-03-12T23:33:54.308Z,13.80
2019-03-12T23:36:25.273Z,13.83
2019-03-12T23:38:56.213Z,12.40
2019-03-12T23:41:27.170Z,12.87
2019-03-12T23:43:58.160Z,12.97
2019-03-12T23:46:30.741Z,13.43
2019-03-12T23:49:01.676Z,10.53
2019-03-12T23:51:32.676Z,9.57
2019-03-12T23:54:03.601Z,11.00
2019-03-12T23:56:34.558Z,10.80
2019-03-12T23:59:05.574Z,11.17
